createdAt,value
2022-09-30T00:01:57.390Z,100.00
2022-09-30T00:04:26.591Z,100.00
2022-09-30T00:06:56.307Z,100.00
2022-09-30T00:09:24.961Z,100.00
2022-09-30T00:11:53.407Z,100.00
2022-09-30T00:14:23.286Z,100.00
2022-09-30T00:16:53.828Z,100.00
2022-09-30T00:19:22.934Z,100.00
2022-09-30T00:21:51.868Z,100.00
2022-09-30T00:24:20.087Z,100.00
2022-09-30T00:26:48.331Z,100.00
2022-09-30T00:29:16.483Z,100.00
2022-09-30T00:31:44.742Z,100.00
2022-09-30T00:34:14.793Z,100.00
2022-09-30T00:36:45.528Z,100.00
2022-09-30T00:39:17.344Z,100.00
2022-09-30T00:41:49.416Z,100.00
2022-09-30T00:44:57.384Z,100.00
2022-09-30T00:47:46.561Z,100.00
2022-09-30T00:50:39.317Z,100.00
2022-09-30T00:53:13.668Z,100.00
2022-09-30T00:55:51.781Z,100.00
2022-09-30T00:58:27.536Z,100.00
2022-09-30T01:00:56.645Z,100.00
2022-09-30T01:03:25.657Z,100.00
2022-09-30T01:05:55.836Z,100.00
2022-09-30T01:08:25.954Z,100.00
2022-09-30T01:10:54.397Z,100.00
2022-09-30T01:13:27.552Z,100.00
2022-09-30T01:16:21.563Z,100.00
2022-09-30T01:19:00.114Z,100.00
2022-09-30T01:22:07.811Z,100.00
2022-09-30T01:25:06.209Z,100.00
2022-09-30T01:28:07.852Z,100.00
2022-09-30T01:31:03.411Z,100.00
2022-09-30T01:33:43.784Z,100.00
2022-09-30T01:36:26.472Z,100.00
2022-09-30T01:39:11.606Z,100.00
2022-09-30T01:41:46.504Z,100.00
2022-09-30T01:44:20.849Z,100.00
2022-09-30T01:46:56.709Z,100.00
2022-09-30T01:49:33.348Z,100.00
2022-09-30T01:52:10.476Z,100.00
2022-09-30T01:54:44.991Z,100.00
2022-09-30T01:57:19.985Z,100.00
2022-09-30T01:59:55.054Z,100.00
2022-09-30T02:02:29.142Z,100.00
2022-09-30T02:05:02.593Z,100.00
2022-09-30T02:07:39.167Z,100.00
2022-09-30T02:10:15.789Z,100.00
2022-09-30T02:12:48.895Z,100.00
2022-09-30T02:15:22.833Z,100.00
2022-09-30T02:17:58.546Z,100.00
2022-09-30T02:20:33.362Z,100.00
2022-09-30T02:23:08.104Z,100.00
2022-09-30T02:25:43.099Z,100.00
2022-09-30T02:28:18.326Z,100.00
2022-09-30T02:30:50.916Z,100.00
2022-09-30T02:33:25.707Z,100.00
2022-09-30T02:35:57.816Z,100.00
2022-09-30T02:38:32.051Z,100.00
2022-09-30T02:41:06.703Z,100.00
2022-09-30T02:43:36.299Z,100.00
2022-09-30T02:46:09.977Z,100.00
2022-09-30T02:48:46.893Z,100.00
2022-09-30T02:51:21.456Z,100.00
2022-09-30T02:53:58.494Z,100.00
2022-09-30T02:56:35.637Z,100.00
2022-09-30T02:59:03.758Z,100.00
2022-09-30T03:01:32.785Z,100.00
2022-09-30T03:04:07.531Z,100.00
2022-09-30T03:06:37.665Z,100.00
2022-09-30T03:09:06.850Z,100.00
2022-09-30T03:11:36.290Z,100.00
2022-09-30T03:14:33.199Z,100.00
2022-09-30T03:17:31.838Z,100.00
2022-09-30T03:20:17.422Z,100.00
2022-09-30T03:23:07.354Z,100.00
2022-09-30T03:25:49.424Z,100.00
2022-09-30T03:28:26.496Z,100.00
2022-09-30T03:31:05.740Z,100.00
2022-09-30T03:33:46.623Z,100.00
2022-09-30T03:36:25.591Z,100.00
2022-09-30T03:39:03.145Z,100.00
2022-09-30T03:41:38.484Z,100.00
2022-09-30T03:44:13.510Z,100.00
2022-09-30T03:46:45.759Z,100.00
2022-09-30T03:49:20.417Z,100.00
2022-09-30T03:51:51.148Z,100.00
2022-09-30T03:54:23.182Z,100.00
2022-09-30T03:56:52.354Z,100.00
2022-09-30T03:59:25.782Z,100.00
2022-09-30T04:01:54.450Z,100.00
2022-09-30T04:04:24.317Z,100.00
2022-09-30T04:06:54.737Z,100.00
2022-09-30T04:09:23.902Z,100.00
2022-09-30T04:11:52.769Z,100.00
2022-09-30T04:14:21.386Z,100.00
2022-09-30T04:16:53.792Z,100.00
2022-09-30T04:19:22.456Z,100.00
2022-09-30T04:21:54.325Z,100.00
2022-09-30T04:24:26.836Z,100.00
2022-09-30T04:26:55.351Z,100.00
2022-09-30T04:29:24.039Z,100.00
2022-09-30T04:31:52.955Z,100.00
2022-09-30T04:34:21.797Z,100.00
2022-09-30T04:36:50.155Z,100.00
2022-09-30T04:39:20.193Z,100.00
2022-09-30T04:41:48.334Z,100.00
2022-09-30T04:44:18.285Z,100.00
2022-09-30T04:46:46.811Z,100.00
2022-09-30T04:49:15.647Z,100.00
2022-09-30T04:51:46.313Z,100.00
2022-09-30T04:54:16.727Z,100.00
2022-09-30T04:56:46.816Z,100.00
2022-09-30T04:59:15.131Z,100.00
2022-09-30T05:01:44.755Z,100.00
2022-09-30T05:04:13.763Z,100.00
2022-09-30T05:06:42.732Z,100.00
2022-09-30T05:09:11.002Z,100.00
2022-09-30T05:11:42.530Z,100.00
2022-09-30T05:14:14.692Z,100.00
2022-09-30T05:16:44.297Z,100.00
2022-09-30T05:19:12.664Z,100.00
2022-09-30T05:21:45.160Z,100.00
2022-09-30T05:24:15.485Z,100.00
2022-09-30T05:26:47.596Z,100.00
2022-09-30T05:29:20.206Z,100.00
2022-09-30T05:31:48.744Z,100.00
2022-09-30T05:34:20.033Z,100.00
2022-09-30T05:36:48.667Z,100.00
2022-09-30T05:39:19.908Z,100.00
2022-09-30T05:41:49.524Z,100.00
2022-09-30T05:44:19.822Z,100.00
2022-09-30T05:46:48.229Z,100.00
2022-09-30T05:49:17.598Z,100.00
2022-09-30T05:51:46.750Z,100.00
2022-09-30T05:54:16.284Z,100.00
2022-09-30T05:56:44.737Z,100.00
2022-09-30T05:59:13.557Z,100.00
2022-09-30T06:01:43.814Z,100.00
2022-09-30T06:04:12.532Z,100.00
2022-09-30T06:06:41.140Z,100.00
2022-09-30T06:09:09.454Z,100.00
2022-09-30T06:11:37.952Z,100.00
2022-09-30T06:14:06.635Z,100.00
2022-09-30T06:16:34.844Z,100.00
2022-09-30T06:19:06.349Z,100.00
2022-09-30T06:21:37.340Z,100.00
2022-09-30T06:24:09.649Z,100.00
2022-09-30T06:26:39.343Z,100.00
2022-09-30T06:29:07.544Z,100.00
2022-09-30T06:31:36.729Z,100.00
2022-09-30T06:34:09.435Z,100.00
2022-09-30T06:36:40.292Z,100.00
2022-09-30T06:39:12.909Z,100.00
2022-09-30T06:41:44.279Z,100.00
2022-09-30T06:44:14.727Z,100.00
2022-09-30T06:46:53.221Z,100.00
2022-09-30T06:49:23.999Z,100.00
2022-09-30T06:51:53.347Z,100.00
2022-09-30T06:54:24.412Z,100.00
2022-09-30T06:56:54.022Z,100.00
2022-09-30T06:59:23.074Z,100.00
2022-09-30T07:01:51.460Z,100.00
2022-09-30T07:04:20.327Z,100.00
2022-09-30T07:06:50.500Z,100.00
2022-09-30T07:09:19.279Z,100.00
2022-09-30T07:11:48.954Z,100.00
2022-09-30T07:14:17.035Z,100.00
2022-09-30T07:16:46.779Z,100.00
2022-09-30T07:19:17.828Z,100.00
2022-09-30T07:21:46.068Z,100.00
2022-09-30T07:24:15.623Z,100.00
2022-09-30T07:26:45.632Z,100.00
2022-09-30T07:29:14.674Z,100.00
2022-09-30T07:31:42.942Z,100.00
2022-09-30T07:34:11.475Z,100.00
2022-09-30T07:36:42.000Z,100.00
2022-09-30T07:39:12.606Z,100.00
2022-09-30T07:41:45.338Z,100.00
2022-09-30T07:44:16.292Z,100.00
2022-09-30T07:46:45.852Z,100.00
2022-09-30T07:49:25.055Z,100.00
2022-09-30T07:51:55.814Z,100.00
2022-09-30T07:54:27.904Z,100.00
2022-09-30T07:57:09.738Z,100.00
2022-09-30T07:59:47.989Z,100.00
2022-09-30T08:02:19.249Z,100.00
2022-09-30T08:04:48.118Z,100.00
2022-09-30T08:07:19.132Z,100.00
2022-09-30T08:09:47.843Z,100.00
2022-09-30T08:12:18.269Z,100.00
2022-09-30T08:14:47.040Z,100.00
2022-09-30T08:17:16.742Z,100.00
2022-09-30T08:19:45.460Z,100.00
2022-09-30T08:22:15.113Z,100.00
2022-09-30T08:24:43.799Z,100.00
2022-09-30T08:27:13.943Z,100.00
2022-09-30T08:30:04.274Z,100.00
2022-09-30T08:32:32.992Z,100.00
2022-09-30T08:35:01.175Z,100.00
2022-09-30T08:37:32.369Z,100.00
2022-09-30T08:40:01.467Z,100.00
2022-09-30T08:42:43.702Z,100.00
2022-09-30T08:45:24.296Z,100.00
2022-09-30T08:48:01.886Z,100.00
2022-09-30T08:50:36.322Z,100.00
2022-09-30T08:53:10.334Z,100.00
2022-09-30T08:55:44.495Z,100.00
2022-09-30T08:58:23.553Z,100.00
2022-09-30T09:00:59.194Z,100.00
2022-09-30T09:03:31.391Z,100.00
2022-09-30T09:06:14.468Z,100.00
2022-09-30T09:08:55.024Z,100.00
2022-09-30T09:11:43.595Z,100.00
2022-09-30T09:14:26.355Z,100.00
2022-09-30T09:17:09.644Z,100.00
2022-09-30T09:19:49.040Z,100.00
2022-09-30T09:22:24.511Z,100.00
2022-09-30T09:24:54.916Z,100.00
2022-09-30T09:27:32.069Z,100.00
2022-09-30T09:30:07.699Z,100.00
2022-09-30T09:32:40.667Z,100.00
2022-09-30T09:35:16.892Z,100.00
2022-09-30T09:38:14.670Z,100.00
2022-09-30T09:40:57.815Z,100.00
2022-09-30T09:43:37.633Z,100.00
2022-09-30T09:46:16.938Z,100.00
2022-09-30T09:48:51.120Z,100.00
2022-09-30T09:51:27.926Z,100.00
2022-09-30T09:54:00.492Z,100.00
2022-09-30T09:56:32.573Z,100.00
2022-09-30T09:59:10.945Z,100.00
2022-09-30T10:01:42.628Z,100.00
2022-09-30T10:04:27.469Z,100.00
2022-09-30T10:07:00.234Z,100.00
2022-09-30T10:09:34.248Z,100.00
2022-09-30T10:12:30.387Z,100.00
2022-09-30T10:15:03.271Z,100.00
2022-09-30T10:17:34.658Z,100.00
2022-09-30T10:20:08.325Z,100.00
2022-09-30T10:22:38.784Z,100.00
2022-09-30T10:25:25.648Z,100.00
2022-09-30T10:27:58.958Z,100.00
2022-09-30T10:30:43.093Z,100.00
2022-09-30T10:33:22.396Z,100.00
2022-09-30T10:35:56.561Z,100.00
2022-09-30T10:38:29.509Z,100.00
2022-09-30T10:41:01.259Z,100.00
2022-09-30T10:43:34.764Z,100.00
2022-09-30T10:46:26.272Z,100.00
2022-09-30T10:48:56.573Z,100.00
2022-09-30T10:51:35.157Z,100.00
2022-09-30T10:54:04.571Z,100.00
2022-09-30T10:56:53.525Z,100.00
2022-09-30T10:59:35.059Z,100.00
2022-09-30T11:04:56.626Z,100.00
2022-09-30T11:07:33.877Z,100.00
2022-09-30T11:10:08.571Z,100.00
2022-09-30T11:12:45.979Z,100.00
2022-09-30T11:15:20.474Z,100.00
2022-09-30T11:17:56.550Z,100.00
2022-09-30T11:20:31.773Z,100.00
2022-09-30T11:23:11.608Z,100.00
2022-09-30T11:25:49.429Z,100.00
2022-09-30T11:28:37.881Z,100.00
2022-09-30T11:31:15.226Z,100.00
2022-09-30T11:33:57.629Z,100.00
2022-09-30T11:36:32.113Z,100.00
2022-09-30T11:39:19.076Z,100.00
2022-09-30T11:41:56.178Z,100.00
2022-09-30T11:44:35.350Z,100.00
2022-09-30T11:47:27.849Z,100.00
2022-09-30T11:50:10.203Z,100.00
2022-09-30T11:52:50.204Z,100.00
2022-09-30T11:55:57.814Z,100.00
2022-09-30T11:58:47.588Z,100.00
2022-09-30T12:01:24.881Z,100.00
2022-09-30T12:04:07.039Z,100.00
2022-09-30T12:06:44.440Z,100.00
2022-09-30T12:09:24.227Z,100.00
2022-09-30T12:12:01.371Z,96.48
2022-09-30T12:14:38.156Z,88.45
2022-09-30T12:17:12.157Z,94.29
2022-09-30T12:19:46.335Z,92.59
2022-09-30T12:22:20.032Z,89.89
2022-09-30T12:24:48.456Z,84.41
2022-09-30T12:27:25.603Z,80.90
2022-09-30T12:30:18.193Z,87.86
2022-09-30T12:33:12.442Z,98.79
2022-09-30T12:36:01.239Z,99.21
2022-09-30T12:38:43.478Z,95.04
2022-09-30T12:41:28.510Z,86.77
2022-09-30T12:44:33.707Z,79.89
2022-09-30T12:47:17.096Z,82.26
2022-09-30T12:49:47.274Z,84.59
2022-09-30T12:52:24.387Z,87.21
2022-09-30T12:55:02.688Z,90.32
2022-09-30T12:57:37.579Z,89.84
2022-09-30T13:00:17.067Z,93.45
2022-09-30T13:02:49.189Z,96.79
2022-09-30T13:05:59.532Z,99.68
2022-09-30T13:09:17.668Z,97.89
2022-09-30T13:11:47.718Z,94.96
2022-09-30T13:14:35.051Z,98.58
2022-09-30T13:17:28.426Z,97.20
2022-09-30T13:19:58.505Z,100.00
2022-09-30T13:23:00.077Z,100.00
2022-09-30T13:25:29.059Z,100.00
2022-09-30T13:28:32.400Z,100.00
2022-09-30T13:31:16.207Z,100.00
2022-09-30T13:33:48.681Z,100.00
2022-09-30T13:36:28.743Z,100.00
2022-09-30T13:39:21.167Z,100.00
2022-09-30T13:42:00.225Z,100.00
2022-09-30T13:44:40.136Z,100.00
2022-09-30T13:47:19.529Z,100.00
2022-09-30T13:49:58.196Z,100.00
2022-09-30T13:52:29.807Z,100.00
2022-09-30T13:55:03.346Z,100.00
2022-09-30T13:57:46.029Z,100.00
2022-09-30T14:00:21.023Z,100.00
2022-09-30T14:03:16.989Z,99.28
2022-09-30T14:06:00.678Z,91.90
2022-09-30T14:09:00.755Z,92.37
2022-09-30T14:11:42.701Z,91.43
2022-09-30T14:14:51.950Z,90.23
2022-09-30T14:17:47.636Z,88.15
2022-09-30T14:20:40.030Z,84.38
2022-09-30T14:23:19.007Z,84.93
2022-09-30T14:25:58.748Z,86.66
2022-09-30T14:28:40.221Z,93.23
2022-09-30T14:31:15.606Z,94.96
2022-09-30T14:33:50.221Z,96.68
2022-09-30T14:36:22.013Z,91.27
2022-09-30T14:38:59.458Z,85.46
2022-09-30T14:41:32.027Z,86.35
2022-09-30T14:44:06.326Z,87.96
2022-09-30T14:46:41.415Z,82.39
2022-09-30T14:49:16.832Z,83.33
2022-09-30T14:51:49.163Z,85.18
2022-09-30T14:54:29.272Z,79.10
2022-09-30T14:57:01.475Z,73.80
2022-09-30T14:59:33.320Z,70.95
2022-09-30T15:02:04.391Z,71.29
2022-09-30T15:04:39.221Z,64.20
2022-09-30T15:07:12.948Z,59.96
2022-09-30T15:09:44.647Z,58.53
2022-09-30T15:12:15.248Z,52.46
2022-09-30T15:14:51.872Z,51.01
2022-09-30T15:17:21.542Z,53.76
2022-09-30T15:19:50.423Z,54.13
2022-09-30T15:22:20.989Z,54.55
2022-09-30T15:24:54.431Z,54.77
2022-09-30T15:27:25.784Z,53.19
2022-09-30T15:30:02.823Z,50.28
2022-09-30T15:35:07.410Z,51.21
2022-09-30T15:37:36.899Z,50.81
2022-09-30T15:40:34.585Z,49.81
2022-09-30T15:43:08.709Z,49.24
2022-09-30T15:45:39.654Z,48.76
2022-09-30T15:48:29.334Z,49.13
2022-09-30T15:51:01.892Z,46.97
2022-09-30T15:53:33.626Z,47.76
2022-09-30T15:56:18.867Z,49.75
2022-09-30T15:58:57.305Z,50.59
2022-09-30T16:01:28.386Z,49.40
2022-09-30T16:03:59.205Z,50.72
2022-09-30T16:06:32.982Z,50.24
2022-09-30T16:09:04.043Z,49.29
2022-09-30T16:11:38.837Z,48.21
2022-09-30T16:14:11.341Z,47.14
2022-09-30T16:16:44.045Z,48.27
2022-09-30T16:19:19.943Z,48.69
2022-09-30T16:21:52.134Z,48.18
2022-09-30T16:24:47.491Z,49.75
2022-09-30T16:27:35.274Z,48.74
2022-09-30T16:30:08.007Z,49.53
2022-09-30T16:32:46.633Z,50.42
2022-09-30T16:35:20.779Z,52.36
2022-09-30T16:37:51.069Z,57.69
2022-09-30T16:40:25.470Z,61.45
2022-09-30T16:42:56.893Z,62.25
2022-09-30T16:45:41.331Z,63.09
2022-09-30T16:48:16.960Z,67.33
2022-09-30T16:50:49.864Z,70.74
2022-09-30T16:53:17.949Z,75.09
2022-09-30T16:55:48.257Z,77.57
2022-09-30T16:58:20.098Z,78.95
2022-09-30T17:00:51.831Z,81.24
2022-09-30T17:03:22.947Z,83.57
2022-09-30T17:05:52.781Z,88.94
2022-09-30T17:08:23.581Z,90.91
2022-09-30T17:10:51.940Z,94.35
2022-09-30T17:13:21.612Z,97.49
2022-09-30T17:15:51.029Z,99.05
2022-09-30T17:18:19.700Z,100.00
2022-09-30T17:20:53.133Z,97.92
2022-09-30T17:23:24.297Z,99.88
2022-09-30T17:25:54.035Z,99.74
2022-09-30T17:28:23.804Z,99.87
2022-09-30T17:30:53.672Z,100.00
2022-09-30T17:33:22.023Z,100.00
2022-09-30T17:35:59.696Z,100.00
2022-09-30T17:38:32.550Z,100.00
2022-09-30T17:41:18.911Z,100.00
2022-09-30T17:43:49.034Z,100.00
2022-09-30T17:46:21.360Z,100.00
2022-09-30T17:48:50.258Z,100.00
2022-09-30T17:51:20.287Z,100.00
2022-09-30T17:53:51.237Z,100.00
2022-09-30T17:56:22.724Z,100.00
2022-09-30T17:58:53.958Z,100.00
2022-09-30T18:01:23.011Z,100.00
2022-09-30T18:03:53.157Z,100.00
2022-09-30T18:06:22.411Z,100.00
2022-09-30T18:08:54.135Z,100.00
2022-09-30T18:11:25.173Z,100.00
2022-09-30T18:14:02.799Z,100.00
2022-09-30T18:16:36.378Z,100.00
2022-09-30T18:19:07.343Z,100.00
2022-09-30T18:21:37.951Z,100.00
2022-09-30T18:24:09.491Z,100.00
2022-09-30T18:26:39.186Z,100.00
2022-09-30T18:29:10.248Z,100.00
2022-09-30T18:31:40.324Z,100.00
2022-09-30T18:34:09.536Z,100.00
2022-09-30T18:36:38.832Z,100.00
2022-09-30T18:39:15.128Z,100.00
2022-09-30T18:41:46.907Z,100.00
2022-09-30T18:44:20.172Z,100.00
2022-09-30T18:46:49.368Z,100.00
2022-09-30T18:49:18.328Z,100.00
2022-09-30T18:51:48.208Z,100.00
2022-09-30T18:54:16.950Z,100.00
2022-09-30T18:56:52.134Z,100.00
2022-09-30T18:59:24.592Z,100.00
2022-09-30T19:01:54.893Z,100.00
2022-09-30T19:04:26.217Z,100.00
2022-09-30T19:06:55.234Z,100.00
2022-09-30T19:09:28.505Z,100.00
2022-09-30T19:12:00.373Z,100.00
2022-09-30T19:14:31.948Z,100.00
2022-09-30T19:17:03.195Z,100.00
2022-09-30T19:19:38.877Z,100.00
2022-09-30T19:22:12.356Z,100.00
2022-09-30T19:24:45.609Z,100.00
2022-09-30T19:27:16.786Z,100.00
2022-09-30T19:29:50.099Z,100.00
2022-09-30T19:32:23.849Z,100.00
2022-09-30T19:35:06.046Z,100.00
2022-09-30T19:37:37.235Z,100.00
2022-09-30T19:40:20.642Z,100.00
2022-09-30T19:42:52.332Z,100.00
2022-09-30T19:45:26.031Z,100.00
2022-09-30T19:47:57.284Z,100.00
2022-09-30T19:50:28.807Z,100.00
2022-09-30T19:52:57.938Z,100.00
2022-09-30T19:55:29.668Z,100.00
2022-09-30T19:58:00.331Z,100.00
2022-09-30T20:00:33.581Z,100.00
2022-09-30T20:03:04.056Z,100.00
2022-09-30T20:05:33.838Z,100.00
2022-09-30T20:08:03.589Z,100.00
2022-09-30T20:10:34.951Z,100.00
2022-09-30T20:13:04.247Z,100.00
2022-09-30T20:15:54.586Z,100.00
2022-09-30T20:18:24.984Z,100.00
2022-09-30T20:20:55.697Z,100.00
2022-09-30T20:23:28.040Z,100.00
2022-09-30T20:25:57.081Z,100.00
2022-09-30T20:28:25.280Z,100.00
2022-09-30T20:30:57.785Z,100.00
2022-09-30T20:33:26.152Z,100.00
2022-09-30T20:35:55.238Z,100.00
2022-09-30T20:38:27.926Z,100.00
2022-09-30T20:40:58.768Z,100.00
2022-09-30T20:43:30.792Z,100.00
2022-09-30T20:46:02.892Z,100.00
2022-09-30T20:48:33.823Z,100.00
2022-09-30T20:51:02.495Z,100.00
2022-09-30T20:53:31.100Z,100.00
2022-09-30T20:56:02.072Z,100.00
2022-09-30T20:58:30.146Z,100.00
2022-09-30T21:01:05.944Z,100.00
2022-09-30T21:03:36.722Z,100.00
2022-09-30T21:06:05.412Z,100.00
2022-09-30T21:08:34.217Z,100.00
2022-09-30T21:11:03.944Z,100.00
2022-09-30T21:13:32.917Z,100.00
2022-09-30T21:16:04.231Z,100.00
2022-09-30T21:18:33.638Z,100.00
2022-09-30T21:21:03.789Z,100.00
2022-09-30T21:23:33.741Z,100.00
2022-09-30T21:26:03.738Z,100.00
2022-09-30T21:28:32.622Z,100.00
2022-09-30T21:31:15.899Z,100.00
2022-09-30T21:33:45.011Z,100.00
2022-09-30T21:36:13.533Z,100.00
2022-09-30T21:38:42.521Z,100.00
2022-09-30T21:41:10.844Z,100.00
2022-09-30T21:43:39.702Z,100.00
2022-09-30T21:46:17.430Z,100.00
2022-09-30T21:48:47.001Z,100.00
2022-09-30T21:51:16.407Z,100.00
2022-09-30T21:53:45.108Z,100.00
2022-09-30T21:56:14.626Z,100.00
2022-09-30T21:58:43.811Z,100.00
2022-09-30T22:01:14.396Z,100.00
2022-09-30T22:03:44.705Z,100.00
2022-09-30T22:06:14.553Z,100.00
2022-09-30T22:08:44.099Z,100.00
2022-09-30T22:11:15.391Z,100.00
2022-09-30T22:13:45.371Z,100.00
2022-09-30T22:16:20.037Z,100.00
2022-09-30T22:18:48.716Z,100.00
2022-09-30T22:21:17.765Z,100.00
2022-09-30T22:23:48.604Z,100.00
2022-09-30T22:26:18.938Z,100.00
2022-09-30T22:28:48.554Z,100.00
2022-09-30T22:31:24.059Z,100.00
2022-09-30T22:34:12.443Z,100.00
2022-09-30T22:36:58.538Z,100.00
2022-09-30T22:39:29.307Z,100.00
2022-09-30T22:41:59.178Z,100.00
2022-09-30T22:44:29.361Z,100.00
2022-09-30T22:47:00.952Z,100.00
2022-09-30T22:49:32.690Z,100.00
2022-09-30T22:52:02.076Z,100.00
2022-09-30T22:54:32.316Z,100.00
2022-09-30T22:57:00.562Z,100.00
2022-09-30T22:59:30.674Z,100.00
2022-09-30T23:02:05.194Z,100.00
2022-09-30T23:04:33.884Z,100.00
2022-09-30T23:09:47.878Z,100.00
2022-09-30T23:12:19.017Z,100.00
2022-09-30T23:14:48.009Z,100.00
2022-09-30T23:17:18.245Z,100.00
2022-09-30T23:19:46.790Z,100.00
2022-09-30T23:22:16.054Z,100.00
2022-09-30T23:24:45.965Z,100.00
2022-09-30T23:27:17.593Z,100.00
2022-09-30T23:29:46.133Z,100.00
2022-09-30T23:32:16.798Z,100.00
2022-09-30T23:34:46.932Z,100.00
2022-09-30T23:37:16.208Z,100.00
2022-09-30T23:39:45.435Z,100.00
2022-09-30T23:42:14.059Z,100.00
2022-09-30T23:44:43.497Z,100.00
2022-09-30T23:47:21.703Z,100.00
2022-09-30T23:49:52.163Z,100.00
2022-09-30T23:52:21.871Z,100.00
2022-09-30T23:54:50.631Z,100.00
2022-09-30T23:57:19.012Z,100.00
2022-09-30T23:59:47.397Z,100.00
